Station Historical Data
Daily Summary for June 12, 2017 Units:  Both    English   Metric
« Previous Day
Next Day »
Daily Weekly Monthly Yearly Custom
  High: Low: Average:
Temperature: 85.9 °F /  29.9 °C 69.3 °F /  20.7 °C 77.2 °F /  25.1 °C
Dew Point: 66.8 °F /  19.3 °C 59.5 °F /  15.3 °C 63.1 °F /  17.3 °C
Humidity: 73% 45% 62%
Wind Speed: 15.0mph /  24.1km/h - 5.5mph /  8.9km/h
Wind Gust: 26.0mph /  41.8km/h - -
Wind- - WSW
Pressure: 30.01 in /  1016.1 hPa 29.90 in /  1012.4 hPa -
Precipitation: 0.00 in /  0 mm    
Historical Graphs
 
 
Tabular Data for June 12, 2017
Time Temperature Dew Point Pressure Wind Wind Speed Wind Gust Humidity Rainfall Rate (Hourly)
00:04 71.2 °F /  21.8 °C 59.7 °F /  15.4 °C 29.94in /  1013.8hPa Calm     67% 0.00in /  0mm
00:09 71.1 °F /  21.7 °C 59.6 °F /  15.3 °C 29.94in /  1013.8hPa Calm   2.0mph /  3.2km/h 67% 0.00in /  0mm
00:14 71.0 °F /  21.7 °C 59.5 °F /  15.3 °C 29.95in /  1014.1hPa Calm   2.0mph /  3.2km/h 67% 0.00in /  0mm
00:19 70.8 °F /  21.6 °C 59.7 °F /  15.4 °C 29.95in /  1014.1hPa Calm   1.0mph /  1.6km/h 68% 0.00in /  0mm
00:24 70.5 °F /  21.4 °C 59.8 °F /  15.4 °C 29.95in /  1014.1hPa Calm     69% 0.00in /  0mm
00:29 70.1 °F /  21.2 °C 59.5 °F /  15.3 °C 29.95in /  1014.1hPa Calm     69% 0.00in /  0mm
00:34 69.8 °F /  21 °C 60.0 °F /  15.6 °C 29.95in /  1014.1hPa Calm     71% 0.00in /  0mm
00:39 69.5 °F /  20.8 °C 59.7 °F /  15.4 °C 29.95in /  1014.1hPa Calm     71% 0.00in /  0mm
00:44 69.3 °F /  20.7 °C 59.9 °F /  15.5 °C 29.95in /  1014.1hPa Calm     72% 0.00in /  0mm
00:54 69.7 °F /  20.9 °C 60.7 °F /  15.9 °C 29.95in /  1014.1hPa Calm   3.0mph /  4.8km/h 73% 0.00in /  0mm
00:59 70.3 °F /  21.3 °C 60.8 °F /  16 °C 29.95in /  1014.1hPa SSW 2.0mph /  3.2km/h 4.0mph /  6.4km/h 72% 0.00in /  0mm
01:04 70.9 °F /  21.6 °C 61.0 °F /  16.1 °C 29.95in /  1014.1hPa SW 1.0mph /  1.6km/h 4.0mph /  6.4km/h 71% 0.00in /  0mm
01:09 71.6 °F /  22 °C 61.3 °F /  16.3 °C 29.95in /  1014.1hPa SW 1.0mph /  1.6km/h 4.0mph /  6.4km/h 70% 0.00in /  0mm
01:14 72.0 °F /  22.2 °C 61.3 °F /  16.3 °C 29.95in /  1014.1hPa SW 2.0mph /  3.2km/h 5.0mph /  8km/h 69% 0.00in /  0mm
01:19 72.7 °F /  22.6 °C 61.1 °F /  16.2 °C 29.95in /  1014.1hPa SW 3.0mph /  4.8km/h 5.0mph /  8km/h 67% 0.00in /  0mm
01:24 73.1 °F /  22.8 °C 61.1 °F /  16.2 °C 29.95in /  1014.1hPa SW 1.0mph /  1.6km/h 6.0mph /  9.7km/h 66% 0.00in /  0mm
01:29 73.1 °F /  22.8 °C 61.1 °F /  16.2 °C 29.95in /  1014.1hPa WSW 3.0mph /  4.8km/h 6.0mph /  9.7km/h 66% 0.00in /  0mm
01:34 73.4 °F /  23 °C 61.3 °F /  16.3 °C 29.95in /  1014.1hPa SW 3.0mph /  4.8km/h 6.0mph /  9.7km/h 66% 0.00in /  0mm
01:39 73.4 °F /  23 °C 60.9 °F /  16.1 °C 29.94in /  1013.8hPa SW 3.0mph /  4.8km/h 6.0mph /  9.7km/h 65% 0.00in /  0mm
01:44 73.6 °F /  23.1 °C 61.1 °F /  16.2 °C 29.94in /  1013.8hPa SSW 3.0mph /  4.8km/h 7.0mph /  11.3km/h 65% 0.00in /  0mm
01:49 74.0 °F /  23.3 °C 61.0 °F /  16.1 °C 29.95in /  1014.1hPa SW 4.0mph /  6.4km/h 7.0mph /  11.3km/h 64% 0.00in /  0mm
01:54 74.2 °F /  23.4 °C 61.2 °F /  16.2 °C 29.96in /  1014.4hPa SW 1.0mph /  1.6km/h 7.0mph /  11.3km/h 64% 0.00in /  0mm
01:59 74.3 °F /  23.5 °C 61.3 °F /  16.3 °C 29.96in /  1014.4hPa Calm   6.0mph /  9.7km/h 64% 0.00in /  0mm
02:04 74.2 °F /  23.4 °C 61.2 °F /  16.2 °C 29.96in /  1014.4hPa WSW 2.0mph /  3.2km/h 9.0mph /  14.5km/h 64% 0.00in /  0mm
02:09 74.5 °F /  23.6 °C 61.1 °F /  16.2 °C 29.97in /  1014.8hPa SW 3.0mph /  4.8km/h 9.0mph /  14.5km/h 63% 0.00in /  0mm
02:14 74.6 °F /  23.7 °C 61.2 °F /  16.2 °C 29.97in /  1014.8hPa SW 3.0mph /  4.8km/h 8.0mph /  12.9km/h 63% 0.00in /  0mm
02:19 74.6 °F /  23.7 °C 61.2 °F /  16.2 °C 29.97in /  1014.8hPa SW 2.0mph /  3.2km/h 7.0mph /  11.3km/h 63% 0.00in /  0mm
02:24 74.6 °F /  23.7 °C 61.2 °F /  16.2 °C 29.97in /  1014.8hPa SW 1.0mph /  1.6km/h 8.0mph /  12.9km/h 63% 0.00in /  0mm
02:29 74.3 °F /  23.5 °C 61.3 °F /  16.3 °C 29.98in /  1015.1hPa South 5.0mph /  8km/h 8.0mph /  12.9km/h 64% 0.00in /  0mm
02:34 74.6 °F /  23.7 °C 61.2 °F /  16.2 °C 29.98in /  1015.1hPa SW 2.0mph /  3.2km/h 5.0mph /  8km/h 63% 0.00in /  0mm
02:39 74.4 °F /  23.6 °C 61.4 °F /  16.3 °C 29.98in /  1015.1hPa SW 3.0mph /  4.8km/h 6.0mph /  9.7km/h 64% 0.00in /  0mm
02:44 74.1 °F /  23.4 °C 61.1 °F /  16.2 °C 29.98in /  1015.1hPa SW 3.0mph /  4.8km/h 6.0mph /  9.7km/h 64% 0.00in /  0mm
02:49 74.1 °F /  23.4 °C 61.6 °F /  16.4 °C 29.98in /  1015.1hPa SW 3.0mph /  4.8km/h 7.0mph /  11.3km/h 65% 0.00in /  0mm
02:54 74.3 °F /  23.5 °C 61.3 °F /  16.3 °C 29.98in /  1015.1hPa SW 4.0mph /  6.4km/h 9.0mph /  14.5km/h 64% 0.00in /  0mm
02:59 74.4 °F /  23.6 °C 61.4 °F /  16.3 °C 29.98in /  1015.1hPa WSW 2.0mph /  3.2km/h 7.0mph /  11.3km/h 64% 0.00in /  0mm
03:04 74.4 °F /  23.6 °C 61.9 °F /  16.6 °C 29.98in /  1015.1hPa West 2.0mph /  3.2km/h 7.0mph /  11.3km/h 65% 0.00in /  0mm
03:09 74.3 °F /  23.5 °C 61.8 °F /  16.6 °C 29.98in /  1015.1hPa SW 4.0mph /  6.4km/h 7.0mph /  11.3km/h 65% 0.00in /  0mm
03:14 74.4 °F /  23.6 °C 61.9 °F /  16.6 °C 29.98in /  1015.1hPa SW 4.0mph /  6.4km/h 10.0mph /  16.1km/h 65% 0.00in /  0mm
03:19 74.5 °F /  23.6 °C 62.0 °F /  16.7 °C 29.98in /  1015.1hPa SW 4.0mph /  6.4km/h 10.0mph /  16.1km/h 65% 0.00in /  0mm
03:24 74.5 °F /  23.6 °C 62.0 °F /  16.7 °C 29.98in /  1015.1hPa SSW 5.0mph /  8km/h 8.0mph /  12.9km/h 65% 0.00in /  0mm
03:29 74.6 °F /  23.7 °C 62.1 °F /  16.7 °C 29.98in /  1015.1hPa WSW 9.0mph /  14.5km/h 11.0mph /  17.7km/h 65% 0.00in /  0mm
03:34 74.7 °F /  23.7 °C 62.1 °F /  16.7 °C 29.98in /  1015.1hPa South 3.0mph /  4.8km/h 10.0mph /  16.1km/h 65% 0.00in /  0mm
03:39 74.7 °F /  23.7 °C 62.1 °F /  16.7 °C 29.98in /  1015.1hPa SW 6.0mph /  9.7km/h 12.0mph /  19.3km/h 65% 0.00in /  0mm
03:44 74.7 °F /  23.7 °C 62.1 °F /  16.7 °C 29.98in /  1015.1hPa WSW 5.0mph /  8km/h 12.0mph /  19.3km/h 65% 0.00in /  0mm
03:49 74.8 °F /  23.8 °C 62.2 °F /  16.8 °C 29.98in /  1015.1hPa SW 5.0mph /  8km/h 13.0mph /  20.9km/h 65% 0.00in /  0mm
03:54 74.9 °F /  23.8 °C 62.3 °F /  16.8 °C 29.98in /  1015.1hPa SW 5.0mph /  8km/h 13.0mph /  20.9km/h 65% 0.00in /  0mm
03:59 74.8 °F /  23.8 °C 62.2 °F /  16.8 °C 29.98in /  1015.1hPa WSW 4.0mph /  6.4km/h 10.0mph /  16.1km/h 65% 0.00in /  0mm
04:04 74.8 °F /  23.8 °C 62.7 °F /  17.1 °C 29.98in /  1015.1hPa WSW 5.0mph /  8km/h 11.0mph /  17.7km/h 66% 0.00in /  0mm
04:09 74.8 °F /  23.8 °C 62.2 °F /  16.8 °C 29.98in /  1015.1hPa WSW 3.0mph /  4.8km/h 10.0mph /  16.1km/h 65% 0.00in /  0mm
04:14 74.9 °F /  23.8 °C 62.3 °F /  16.8 °C 29.98in /  1015.1hPa WSW 4.0mph /  6.4km/h 11.0mph /  17.7km/h 65% 0.00in /  0mm
04:19 74.9 °F /  23.8 °C 62.3 °F /  16.8 °C 29.97in /  1014.8hPa WSW 7.0mph /  11.3km/h 10.0mph /  16.1km/h 65% 0.00in /  0mm
04:24 74.9 °F /  23.8 °C 62.3 °F /  16.8 °C 29.97in /  1014.8hPa SW 6.0mph /  9.7km/h 11.0mph /  17.7km/h 65% 0.00in /  0mm
04:29 74.8 °F /  23.8 °C 62.2 °F /  16.8 °C 29.97in /  1014.8hPa SSW 4.0mph /  6.4km/h 10.0mph /  16.1km/h 65% 0.00in /  0mm
04:34 74.9 °F /  23.8 °C 62.3 °F /  16.8 °C 29.97in /  1014.8hPa SW 4.0mph /  6.4km/h 10.0mph /  16.1km/h 65% 0.00in /  0mm
04:39 75.0 °F /  23.9 °C 62.4 °F /  16.9 °C 29.97in /  1014.8hPa WSW 6.0mph /  9.7km/h 13.0mph /  20.9km/h 65% 0.00in /  0mm
04:44 75.1 °F /  23.9 °C 62.5 °F /  16.9 °C 29.97in /  1014.8hPa WSW 6.0mph /  9.7km/h 13.0mph /  20.9km/h 65% 0.00in /  0mm
04:49 75.0 °F /  23.9 °C 62.4 °F /  16.9 °C 29.97in /  1014.8hPa WSW 6.0mph /  9.7km/h 12.0mph /  19.3km/h 65% 0.00in /  0mm
04:54 75.0 °F /  23.9 °C 62.4 °F /  16.9 °C 29.97in /  1014.8hPa WSW 7.0mph /  11.3km/h 12.0mph /  19.3km/h 65% 0.00in /  0mm
04:59 74.8 °F /  23.8 °C 62.2 °F /  16.8 °C 29.96in /  1014.4hPa WSW 6.0mph /  9.7km/h 13.0mph /  20.9km/h 65% 0.00in /  0mm
05:04 74.4 °F /  23.6 °C 62.3 °F /  16.8 °C 29.96in /  1014.4hPa WSW 6.0mph /  9.7km/h 13.0mph /  20.9km/h 66% 0.00in /  0mm
05:09 74.0 °F /  23.3 °C 62.3 °F /  16.8 °C 29.96in /  1014.4hPa WSW 5.0mph /  8km/h 12.0mph /  19.3km/h 67% 0.00in /  0mm
05:14 73.6 °F /  23.1 °C 62.4 °F /  16.9 °C 29.96in /  1014.4hPa WSW 4.0mph /  6.4km/h 12.0mph /  19.3km/h 68% 0.00in /  0mm
05:19 73.1 °F /  22.8 °C 62.3 °F /  16.8 °C 29.97in /  1014.8hPa WNW 5.0mph /  8km/h 10.0mph /  16.1km/h 69% 0.00in /  0mm
05:24 72.7 °F /  22.6 °C 61.9 °F /  16.6 °C 29.97in /  1014.8hPa WSW 2.0mph /  3.2km/h 12.0mph /  19.3km/h 69% 0.00in /  0mm
05:29 72.2 °F /  22.3 °C 61.9 °F /  16.6 °C 29.97in /  1014.8hPa WSW 2.0mph /  3.2km/h 9.0mph /  14.5km/h 70% 0.00in /  0mm
05:34 72.0 °F /  22.2 °C 62.1 °F /  16.7 °C 29.97in /  1014.8hPa SW 8.0mph /  12.9km/h 9.0mph /  14.5km/h 71% 0.00in /  0mm
05:39 71.9 °F /  22.2 °C 62.0 °F /  16.7 °C 29.97in /  1014.8hPa WSW 4.0mph /  6.4km/h 10.0mph /  16.1km/h 71% 0.00in /  0mm
05:44 71.8 °F /  22.1 °C 61.9 °F /  16.6 °C 29.98in /  1015.1hPa WSW 4.0mph /  6.4km/h 10.0mph /  16.1km/h 71% 0.00in /  0mm
05:49 71.8 °F /  22.1 °C 61.9 °F /  16.6 °C 29.98in /  1015.1hPa WSW 4.0mph /  6.4km/h 8.0mph /  12.9km/h 71% 0.00in /  0mm
05:54 72.0 °F /  22.2 °C 62.1 °F /  16.7 °C 29.98in /  1015.1hPa WSW 2.0mph /  3.2km/h 8.0mph /  12.9km/h 71% 0.00in /  0mm
05:59 72.2 °F /  22.3 °C 61.9 °F /  16.6 °C 29.98in /  1015.1hPa SW 1.0mph /  1.6km/h 8.0mph /  12.9km/h 70% 0.00in /  0mm
06:04 72.4 °F /  22.4 °C 62.1 °F /  16.7 °C 29.98in /  1015.1hPa WSW 4.0mph /  6.4km/h 10.0mph /  16.1km/h 70% 0.00in /  0mm
06:09 72.5 °F /  22.5 °C 62.2 °F /  16.8 °C 29.99in /  1015.5hPa WSW 4.0mph /  6.4km/h 10.0mph /  16.1km/h 70% 0.00in /  0mm
06:14 72.5 °F /  22.5 °C 62.2 °F /  16.8 °C 29.99in /  1015.5hPa WSW 4.0mph /  6.4km/h 8.0mph /  12.9km/h 70% 0.00in /  0mm
06:19 72.5 °F /  22.5 °C 62.2 °F /  16.8 °C 29.99in /  1015.5hPa WSW 4.0mph /  6.4km/h 8.0mph /  12.9km/h 70% 0.00in /  0mm
06:24 72.4 °F /  22.4 °C 62.1 °F /  16.7 °C 30.00in /  1015.8hPa WSW 4.0mph /  6.4km/h 8.0mph /  12.9km/h 70% 0.00in /  0mm
06:29 72.1 °F /  22.3 °C 62.2 °F /  16.8 °C 30.00in /  1015.8hPa WSW 3.0mph /  4.8km/h 8.0mph /  12.9km/h 71% 0.00in /  0mm
06:34 72.1 °F /  22.3 °C 62.2 °F /  16.8 °C 30.00in /  1015.8hPa WSW 4.0mph /  6.4km/h 9.0mph /  14.5km/h 71% 0.00in /  0mm
06:39 72.1 °F /  22.3 °C 62.2 °F /  16.8 °C 30.00in /  1015.8hPa WSW 4.0mph /  6.4km/h 9.0mph /  14.5km/h 71% 0.00in /  0mm
06:44 72.1 °F /  22.3 °C 62.2 °F /  16.8 °C 30.00in /  1015.8hPa WSW 4.0mph /  6.4km/h 7.0mph /  11.3km/h 71% 0.00in /  0mm
06:49 72.2 °F /  22.3 °C 62.3 °F /  16.8 °C 30.00in /  1015.8hPa SW 4.0mph /  6.4km/h 7.0mph /  11.3km/h 71% 0.00in /  0mm
06:54 72.4 °F /  22.4 °C 62.5 °F /  16.9 °C 30.01in /  1016.1hPa WSW 1.0mph /  1.6km/h 9.0mph /  14.5km/h 71% 0.00in /  0mm
06:59 72.6 °F /  22.6 °C 62.7 °F /  17.1 °C 30.01in /  1016.1hPa WSW 2.0mph /  3.2km/h 7.0mph /  11.3km/h 71% 0.00in /  0mm
07:04 72.8 °F /  22.7 °C 62.8 °F /  17.1 °C 30.01in /  1016.1hPa WSW 4.0mph /  6.4km/h 9.0mph /  14.5km/h 71% 0.00in /  0mm
07:09 73.1 °F /  22.8 °C 62.7 °F /  17.1 °C 30.01in /  1016.1hPa WSW 4.0mph /  6.4km/h 12.0mph /  19.3km/h 70% 0.00in /  0mm
07:14 73.3 °F /  22.9 °C 62.9 °F /  17.2 °C 30.01in /  1016.1hPa WSW 4.0mph /  6.4km/h 12.0mph /  19.3km/h 70% 0.00in /  0mm
07:19 73.5 °F /  23.1 °C 62.7 °F /  17.1 °C 30.01in /  1016.1hPa WSW 4.0mph /  6.4km/h 9.0mph /  14.5km/h 69% 0.00in /  0mm
07:24 73.6 °F /  23.1 °C 62.8 °F /  17.1 °C 30.01in /  1016.1hPa WSW 4.0mph /  6.4km/h 11.0mph /  17.7km/h 69% 0.00in /  0mm
07:29 73.7 °F /  23.2 °C 62.9 °F /  17.2 °C 30.01in /  1016.1hPa WSW 4.0mph /  6.4km/h 11.0mph /  17.7km/h 69% 0.00in /  0mm
07:34 73.9 °F /  23.3 °C 62.7 °F /  17.1 °C 30.01in /  1016.1hPa West 5.0mph /  8km/h 15.0mph /  24.1km/h 68% 0.00in /  0mm
07:39 74.1 °F /  23.4 °C 62.9 °F /  17.2 °C 30.01in /  1016.1hPa West 6.0mph /  9.7km/h 12.0mph /  19.3km/h 68% 0.00in /  0mm
07:44 74.3 °F /  23.5 °C 63.5 °F /  17.5 °C 30.01in /  1016.1hPa West 10.0mph /  16.1km/h 13.0mph /  20.9km/h 69% 0.00in /  0mm
07:49 74.4 °F /  23.6 °C 63.1 °F /  17.3 °C 30.01in /  1016.1hPa WSW 8.0mph /  12.9km/h 13.0mph /  20.9km/h 68% 0.00in /  0mm
07:54 74.2 °F /  23.4 °C 63.0 °F /  17.2 °C 30.01in /  1016.1hPa West 6.0mph /  9.7km/h 14.0mph /  22.5km/h 68% 0.00in /  0mm
07:59 74.0 °F /  23.3 °C 62.8 °F /  17.1 °C 30.01in /  1016.1hPa West 6.0mph /  9.7km/h 16.0mph /  25.7km/h 68% 0.00in /  0mm
08:04 73.8 °F /  23.2 °C 62.6 °F /  17 °C 30.00in /  1015.8hPa SW 5.0mph /  8km/h 13.0mph /  20.9km/h 68% 0.00in /  0mm
08:09 73.6 °F /  23.1 °C 62.8 °F /  17.1 °C 30.00in /  1015.8hPa SW 7.0mph /  11.3km/h 15.0mph /  24.1km/h 69% 0.00in /  0mm
08:14 73.6 °F /  23.1 °C 62.8 °F /  17.1 °C 30.00in /  1015.8hPa WSW 6.0mph /  9.7km/h 15.0mph /  24.1km/h 69% 0.00in /  0mm
08:19 73.9 °F /  23.3 °C 63.1 °F /  17.3 °C 30.00in /  1015.8hPa WSW 6.0mph /  9.7km/h 12.0mph /  19.3km/h 69% 0.00in /  0mm
08:24 73.8 °F /  23.2 °C 63.0 °F /  17.2 °C 30.00in /  1015.8hPa WSW 7.0mph /  11.3km/h 14.0mph /  22.5km/h 69% 0.00in /  0mm
08:29 74.1 °F /  23.4 °C 63.3 °F /  17.4 °C 30.00in /  1015.8hPa WSW 6.0mph /  9.7km/h 14.0mph /  22.5km/h 69% 0.00in /  0mm
08:34 74.4 °F /  23.6 °C 63.1 °F /  17.3 °C 30.00in /  1015.8hPa WSW 6.0mph /  9.7km/h 14.0mph /  22.5km/h 68% 0.00in /  0mm
08:39 74.7 °F /  23.7 °C 63.0 °F /  17.2 °C 30.00in /  1015.8hPa SSW 7.0mph /  11.3km/h 12.0mph /  19.3km/h 67% 0.00in /  0mm
08:44 74.6 °F /  23.7 °C 63.3 °F /  17.4 °C 30.00in /  1015.8hPa WSW 8.0mph /  12.9km/h 15.0mph /  24.1km/h 68% 0.00in /  0mm
08:49 74.5 °F /  23.6 °C 63.2 °F /  17.3 °C 30.00in /  1015.8hPa WSW 7.0mph /  11.3km/h 16.0mph /  25.7km/h 68% 0.00in /  0mm
08:54 74.9 °F /  23.8 °C 63.6 °F /  17.6 °C 30.00in /  1015.8hPa SSW 4.0mph /  6.4km/h 12.0mph /  19.3km/h 68% 0.00in /  0mm
08:59 74.9 °F /  23.8 °C 63.2 °F /  17.3 °C 29.99in /  1015.5hPa WSW 7.0mph /  11.3km/h 13.0mph /  20.9km/h 67% 0.00in /  0mm
09:04 75.1 °F /  23.9 °C 63.8 °F /  17.7 °C 29.99in /  1015.5hPa SW 4.0mph /  6.4km/h 15.0mph /  24.1km/h 68% 0.00in /  0mm
09:09 75.3 °F /  24.1 °C 63.6 °F /  17.6 °C 29.99in /  1015.5hPa SW 7.0mph /  11.3km/h 17.0mph /  27.4km/h 67% 0.00in /  0mm
09:14 75.4 °F /  24.1 °C 64.1 °F /  17.8 °C 29.98in /  1015.1hPa SW 7.0mph /  11.3km/h 17.0mph /  27.4km/h 68% 0.00in /  0mm
09:19 76.0 °F /  24.4 °C 63.8 °F /  17.7 °C 29.97in /  1014.8hPa SW 7.0mph /  11.3km/h 16.0mph /  25.7km/h 66% 0.00in /  0mm
09:24 76.2 °F /  24.6 °C 63.6 °F /  17.6 °C 29.97in /  1014.8hPa WSW 10.0mph /  16.1km/h 14.0mph /  22.5km/h 65% 0.00in /  0mm
09:29 77.0 °F /  25 °C 64.3 °F /  17.9 °C 29.99in /  1015.5hPa SW 6.0mph /  9.7km/h 10.0mph /  16.1km/h 65% 0.00in /  0mm
09:34 77.2 °F /  25.1 °C 64.1 °F /  17.8 °C 30.00in /  1015.8hPa SW 8.0mph /  12.9km/h 15.0mph /  24.1km/h 64% 0.00in /  0mm
09:39 77.7 °F /  25.4 °C 65.0 °F /  18.3 °C 30.00in /  1015.8hPa WSW 6.0mph /  9.7km/h 15.0mph /  24.1km/h 65% 0.00in /  0mm
09:44 77.8 °F /  25.4 °C 65.1 °F /  18.4 °C 30.00in /  1015.8hPa WSW 6.0mph /  9.7km/h 16.0mph /  25.7km/h 65% 0.00in /  0mm
09:49 78.4 °F /  25.8 °C 64.3 °F /  17.9 °C 30.00in /  1015.8hPa WSW 6.0mph /  9.7km/h 16.0mph /  25.7km/h 62% 0.00in /  0mm
09:54 78.8 °F /  26 °C 65.1 °F /  18.4 °C 30.00in /  1015.8hPa West 6.0mph /  9.7km/h 12.0mph /  19.3km/h 63% 0.00in /  0mm
09:59 78.2 °F /  25.7 °C 64.1 °F /  17.8 °C 30.00in /  1015.8hPa WNW 11.0mph /  17.7km/h 14.0mph /  22.5km/h 62% 0.00in /  0mm
10:04 77.6 °F /  25.3 °C 64.9 °F /  18.3 °C 30.00in /  1015.8hPa WNW 5.0mph /  8km/h 14.0mph /  22.5km/h 65% 0.00in /  0mm
10:09 77.4 °F /  25.2 °C 64.3 °F /  17.9 °C 30.00in /  1015.8hPa WSW 7.0mph /  11.3km/h 14.0mph /  22.5km/h 64% 0.00in /  0mm
10:14 77.5 °F /  25.3 °C 64.4 °F /  18 °C 30.00in /  1015.8hPa WSW 7.0mph /  11.3km/h 14.0mph /  22.5km/h 64% 0.00in /  0mm
10:19 78.1 °F /  25.6 °C 65.4 °F /  18.6 °C 30.00in /  1015.8hPa WSW 8.0mph /  12.9km/h 17.0mph /  27.4km/h 65% 0.00in /  0mm
10:24 78.4 °F /  25.8 °C 64.3 °F /  17.9 °C 30.00in /  1015.8hPa SW 6.0mph /  9.7km/h 16.0mph /  25.7km/h 62% 0.00in /  0mm
10:29 78.9 °F /  26.1 °C 64.3 °F /  17.9 °C 30.00in /  1015.8hPa WSW 11.0mph /  17.7km/h 21.0mph /  33.8km/h 61% 0.00in /  0mm
10:34 79.0 °F /  26.1 °C 64.9 °F /  18.3 °C 29.99in /  1015.5hPa SW 6.0mph /  9.7km/h 14.0mph /  22.5km/h 62% 0.00in /  0mm
10:39 79.1 °F /  26.2 °C 64.5 °F /  18.1 °C 29.99in /  1015.5hPa WSW 9.0mph /  14.5km/h 18.0mph /  29km/h 61% 0.00in /  0mm
10:44 78.6 °F /  25.9 °C 64.0 °F /  17.8 °C 29.99in /  1015.5hPa WSW 10.0mph /  16.1km/h 20.0mph /  32.2km/h 61% 0.00in /  0mm
10:49 78.6 °F /  25.9 °C 64.0 °F /  17.8 °C 29.99in /  1015.5hPa WSW 10.0mph /  16.1km/h 20.0mph /  32.2km/h 61% 0.00in /  0mm
10:54 79.2 °F /  26.2 °C 64.6 °F /  18.1 °C 29.99in /  1015.5hPa WSW 9.0mph /  14.5km/h 20.0mph /  32.2km/h 61% 0.00in /  0mm
10:59 79.3 °F /  26.3 °C 65.1 °F /  18.4 °C 29.99in /  1015.5hPa WSW 9.0mph /  14.5km/h 20.0mph /  32.2km/h 62% 0.00in /  0mm
11:04 79.5 °F /  26.4 °C 64.9 °F /  18.3 °C 29.99in /  1015.5hPa WSW 14.0mph /  22.5km/h 17.0mph /  27.4km/h 61% 0.00in /  0mm
11:09 78.5 °F /  25.8 °C 64.4 °F /  18 °C 29.99in /  1015.5hPa WSW 13.0mph /  20.9km/h 20.0mph /  32.2km/h 62% 0.00in /  0mm
11:14 78.2 °F /  25.7 °C 64.1 °F /  17.8 °C 29.99in /  1015.5hPa WSW 10.0mph /  16.1km/h 21.0mph /  33.8km/h 62% 0.00in /  0mm
11:19 78.5 °F /  25.8 °C 64.4 °F /  18 °C 29.99in /  1015.5hPa West 7.0mph /  11.3km/h 19.0mph /  30.6km/h 62% 0.00in /  0mm
11:24 78.1 °F /  25.6 °C 64.9 °F /  18.3 °C 29.99in /  1015.5hPa SW 14.0mph /  22.5km/h 21.0mph /  33.8km/h 64% 0.00in /  0mm
11:29 78.0 °F /  25.6 °C 63.9 °F /  17.7 °C 29.99in /  1015.5hPa WSW 5.0mph /  8km/h 16.0mph /  25.7km/h 62% 0.00in /  0mm
11:34 78.2 °F /  25.7 °C 64.6 °F /  18.1 °C 29.99in /  1015.5hPa WSW 9.0mph /  14.5km/h 19.0mph /  30.6km/h 63% 0.00in /  0mm
11:39 78.2 °F /  25.7 °C 64.6 °F /  18.1 °C 29.99in /  1015.5hPa WSW 9.0mph /  14.5km/h 19.0mph /  30.6km/h 63% 0.00in /  0mm
11:44 78.6 °F /  25.9 °C 64.5 °F /  18.1 °C 29.99in /  1015.5hPa WSW 8.0mph /  12.9km/h 18.0mph /  29km/h 62% 0.00in /  0mm
11:49 78.7 °F /  25.9 °C 65.0 °F /  18.3 °C 29.99in /  1015.5hPa WSW 8.0mph /  12.9km/h 18.0mph /  29km/h 63% 0.00in /  0mm
11:54 78.3 °F /  25.7 °C 65.1 °F /  18.4 °C 29.99in /  1015.5hPa WSW 8.0mph /  12.9km/h 20.0mph /  32.2km/h 64% 0.00in /  0mm
11:59 77.9 °F /  25.5 °C 64.7 °F /  18.2 °C 29.99in /  1015.5hPa WSW 9.0mph /  14.5km/h 20.0mph /  32.2km/h 64% 0.00in /  0mm
12:04 78.0 °F /  25.6 °C 64.8 °F /  18.2 °C 29.98in /  1015.1hPa SSW 7.0mph /  11.3km/h 17.0mph /  27.4km/h 64% 0.00in /  0mm
12:09 77.8 °F /  25.4 °C 64.6 °F /  18.1 °C 29.98in /  1015.1hPa SW 6.0mph /  9.7km/h 19.0mph /  30.6km/h 64% 0.00in /  0mm
12:14 78.6 °F /  25.9 °C 65.4 °F /  18.6 °C 29.98in /  1015.1hPa WSW 10.0mph /  16.1km/h 13.0mph /  20.9km/h 64% 0.00in /  0mm
12:19 78.4 °F /  25.8 °C 65.2 °F /  18.4 °C 29.98in /  1015.1hPa WSW 10.0mph /  16.1km/h 18.0mph /  29km/h 64% 0.00in /  0mm
12:24 77.9 °F /  25.5 °C 64.3 °F /  17.9 °C 29.98in /  1015.1hPa West 5.0mph /  8km/h 18.0mph /  29km/h 63% 0.00in /  0mm
12:29 78.2 °F /  25.7 °C 65.0 °F /  18.3 °C 29.98in /  1015.1hPa WSW 11.0mph /  17.7km/h 17.0mph /  27.4km/h 64% 0.00in /  0mm
12:34 78.4 °F /  25.8 °C 65.2 °F /  18.4 °C 29.98in /  1015.1hPa West 15.0mph /  24.1km/h 20.0mph /  32.2km/h 64% 0.00in /  0mm
12:39 78.3 °F /  25.7 °C 64.7 °F /  18.2 °C 29.98in /  1015.1hPa WSW 10.0mph /  16.1km/h 20.0mph /  32.2km/h 63% 0.00in /  0mm
12:44 78.0 °F /  25.6 °C 64.8 °F /  18.2 °C 29.98in /  1015.1hPa WSW 10.0mph /  16.1km/h 21.0mph /  33.8km/h 64% 0.00in /  0mm
12:49 78.2 °F /  25.7 °C 65.0 °F /  18.3 °C 29.97in /  1014.8hPa WSW 10.0mph /  16.1km/h 21.0mph /  33.8km/h 64% 0.00in /  0mm
12:54 78.5 °F /  25.8 °C 65.8 °F /  18.8 °C 29.98in /  1015.1hPa West 6.0mph /  9.7km/h 15.0mph /  24.1km/h 65% 0.00in /  0mm
12:59 79.1 °F /  26.2 °C 65.4 °F /  18.6 °C 29.97in /  1014.8hPa SW 11.0mph /  17.7km/h 21.0mph /  33.8km/h 63% 0.00in /  0mm
13:04 78.7 °F /  25.9 °C 65.0 °F /  18.3 °C 29.97in /  1014.8hPa WNW 8.0mph /  12.9km/h 19.0mph /  30.6km/h 63% 0.00in /  0mm
13:09 79.3 °F /  26.3 °C 65.1 °F /  18.4 °C 29.97in /  1014.8hPa SSE 11.0mph /  17.7km/h 17.0mph /  27.4km/h 62% 0.00in /  0mm
13:14 79.4 °F /  26.3 °C 65.7 °F /  18.7 °C 29.97in /  1014.8hPa WSW 3.0mph /  4.8km/h 16.0mph /  25.7km/h 63% 0.00in /  0mm
13:19 79.7 °F /  26.5 °C 65.5 °F /  18.6 °C 29.97in /  1014.8hPa WSW 11.0mph /  17.7km/h 18.0mph /  29km/h 62% 0.00in /  0mm
13:24 79.7 °F /  26.5 °C 65.5 °F /  18.6 °C 29.97in /  1014.8hPa WSW 10.0mph /  16.1km/h 18.0mph /  29km/h 62% 0.00in /  0mm
13:29 80.1 °F /  26.7 °C 65.9 °F /  18.8 °C 29.97in /  1014.8hPa NE 8.0mph /  12.9km/h 17.0mph /  27.4km/h 62% 0.00in /  0mm
13:34 79.9 °F /  26.6 °C 65.2 °F /  18.4 °C 29.97in /  1014.8hPa SSW 5.0mph /  8km/h 17.0mph /  27.4km/h 61% 0.00in /  0mm
13:39 80.4 °F /  26.9 °C 65.7 °F /  18.7 °C 29.97in /  1014.8hPa WSW 7.0mph /  11.3km/h 17.0mph /  27.4km/h 61% 0.00in /  0mm
13:44 80.7 °F /  27.1 °C 66.5 °F /  19.2 °C 29.96in /  1014.4hPa WSW 7.0mph /  11.3km/h 17.0mph /  27.4km/h 62% 0.00in /  0mm
13:49 80.4 °F /  26.9 °C 66.2 °F /  19 °C 29.96in /  1014.4hPa WSW 8.0mph /  12.9km/h 17.0mph /  27.4km/h 62% 0.00in /  0mm
13:54 80.3 °F /  26.8 °C 66.1 °F /  18.9 °C 29.96in /  1014.4hPa WSW 9.0mph /  14.5km/h 23.0mph /  37km/h 62% 0.00in /  0mm
13:59 80.2 °F /  26.8 °C 66.0 °F /  18.9 °C 29.95in /  1014.1hPa WSW 9.0mph /  14.5km/h 18.0mph /  29km/h 62% 0.00in /  0mm
14:04 80.4 °F /  26.9 °C 65.2 °F /  18.4 °C 29.96in /  1014.4hPa West 14.0mph /  22.5km/h 16.0mph /  25.7km/h 60% 0.00in /  0mm
14:09 80.7 °F /  27.1 °C 66.5 °F /  19.2 °C 29.96in /  1014.4hPa WNW 8.0mph /  12.9km/h 19.0mph /  30.6km/h 62% 0.00in /  0mm
14:14 81.1 °F /  27.3 °C 65.9 °F /  18.8 °C 29.95in /  1014.1hPa WSW 9.0mph /  14.5km/h 19.0mph /  30.6km/h 60% 0.00in /  0mm
14:19 81.8 °F /  27.7 °C 65.6 °F /  18.7 °C 29.95in /  1014.1hPa WSW 8.0mph /  12.9km/h 19.0mph /  30.6km/h 58% 0.00in /  0mm
14:24 81.6 °F /  27.6 °C 65.9 °F /  18.8 °C 29.95in /  1014.1hPa WSW 8.0mph /  12.9km/h 16.0mph /  25.7km/h 59% 0.00in /  0mm
14:29 81.6 °F /  27.6 °C 65.4 °F /  18.6 °C 29.95in /  1014.1hPa WSW 7.0mph /  11.3km/h 17.0mph /  27.4km/h 58% 0.00in /  0mm
14:34 81.8 °F /  27.7 °C 66.6 °F /  19.2 °C 29.95in /  1014.1hPa SW 7.0mph /  11.3km/h 16.0mph /  25.7km/h 60% 0.00in /  0mm
14:39 81.8 °F /  27.7 °C 65.6 °F /  18.7 °C 29.95in /  1014.1hPa West 13.0mph /  20.9km/h 17.0mph /  27.4km/h 58% 0.00in /  0mm
14:44 82.1 °F /  27.8 °C 66.8 °F /  19.3 °C 29.95in /  1014.1hPa West 8.0mph /  12.9km/h 17.0mph /  27.4km/h 60% 0.00in /  0mm
14:49 80.8 °F /  27.1 °C 64.6 °F /  18.1 °C 29.95in /  1014.1hPa WSW 9.0mph /  14.5km/h 18.0mph /  29km/h 58% 0.00in /  0mm
14:54 80.9 °F /  27.2 °C 64.7 °F /  18.2 °C 29.95in /  1014.1hPa WSW 7.0mph /  11.3km/h 21.0mph /  33.8km/h 58% 0.00in /  0mm
14:59 81.1 °F /  27.3 °C 65.9 °F /  18.8 °C 29.95in /  1014.1hPa SW 7.0mph /  11.3km/h 15.0mph /  24.1km/h 60% 0.00in /  0mm
15:04 81.3 °F /  27.4 °C 65.1 °F /  18.4 °C 29.95in /  1014.1hPa West 15.0mph /  24.1km/h 16.0mph /  25.7km/h 58% 0.00in /  0mm
15:09 82.0 °F /  27.8 °C 66.3 °F /  19.1 °C 29.95in /  1014.1hPa West 5.0mph /  8km/h 15.0mph /  24.1km/h 59% 0.00in /  0mm
15:14 81.9 °F /  27.7 °C 65.7 °F /  18.7 °C 29.95in /  1014.1hPa West 8.0mph /  12.9km/h 19.0mph /  30.6km/h 58% 0.00in /  0mm
15:19 82.5 °F /  28.1 °C 65.7 °F /  18.7 °C 29.95in /  1014.1hPa WSW 9.0mph /  14.5km/h 19.0mph /  30.6km/h 57% 0.00in /  0mm
15:24 83.1 °F /  28.4 °C 64.7 °F /  18.2 °C 29.95in /  1014.1hPa WSW 8.0mph /  12.9km/h 19.0mph /  30.6km/h 54% 0.00in /  0mm
15:29 83.4 °F /  28.6 °C 64.5 °F /  18.1 °C 29.95in /  1014.1hPa WSW 8.0mph /  12.9km/h 19.0mph /  30.6km/h 53% 0.00in /  0mm
15:34 83.5 °F /  28.6 °C 64.6 °F /  18.1 °C 29.95in /  1014.1hPa West 9.0mph /  14.5km/h 19.0mph /  30.6km/h 53% 0.00in /  0mm
15:39 84.2 °F /  29 °C 64.1 °F /  17.8 °C 29.95in /  1014.1hPa SW 10.0mph /  16.1km/h 19.0mph /  30.6km/h 51% 0.00in /  0mm
15:44 84.1 °F /  28.9 °C 63.5 °F /  17.5 °C 29.95in /  1014.1hPa WNW 4.0mph /  6.4km/h 26.0mph /  41.8km/h 50% 0.00in /  0mm
15:49 85.0 °F /  29.4 °C 63.7 °F /  17.6 °C 29.95in /  1014.1hPa WSW 3.0mph /  4.8km/h 14.0mph /  22.5km/h 49% 0.00in /  0mm
15:54 85.3 °F /  29.6 °C 64.0 °F /  17.8 °C 29.95in /  1014.1hPa WNW 9.0mph /  14.5km/h 20.0mph /  32.2km/h 49% 0.00in /  0mm
15:59 85.3 °F /  29.6 °C 64.6 °F /  18.1 °C 29.95in /  1014.1hPa WSW 9.0mph /  14.5km/h 21.0mph /  33.8km/h 50% 0.00in /  0mm
16:04 85.2 °F /  29.6 °C 63.3 °F /  17.4 °C 29.95in /  1014.1hPa West 12.0mph /  19.3km/h 16.0mph /  25.7km/h 48% 0.00in /  0mm
16:09 85.6 °F /  29.8 °C 64.2 °F /  17.9 °C 29.95in /  1014.1hPa West 11.0mph /  17.7km/h 17.0mph /  27.4km/h 49% 0.00in /  0mm
16:14 85.4 °F /  29.7 °C 63.5 °F /  17.5 °C 29.94in /  1013.8hPa WSW 9.0mph /  14.5km/h 18.0mph /  29km/h 48% 0.00in /  0mm
16:19 85.5 °F /  29.7 °C 61.7 °F /  16.5 °C 29.95in /  1014.1hPa WSW 10.0mph /  16.1km/h 22.0mph /  35.4km/h 45% 0.00in /  0mm
16:24 85.9 °F /  29.9 °C 63.9 °F /  17.7 °C 29.94in /  1013.8hPa WSW 9.0mph /  14.5km/h 22.0mph /  35.4km/h 48% 0.00in /  0mm
16:29 85.9 °F /  29.9 °C 62.1 °F /  16.7 °C 29.94in /  1013.8hPa WSW 8.0mph /  12.9km/h 23.0mph /  37km/h 45% 0.00in /  0mm
16:34 85.6 °F /  29.8 °C 63.1 °F /  17.3 °C 29.94in /  1013.8hPa SW 15.0mph /  24.1km/h 16.0mph /  25.7km/h 47% 0.00in /  0mm
16:39 85.4 °F /  29.7 °C 62.9 °F /  17.2 °C 29.94in /  1013.8hPa WSW 7.0mph /  11.3km/h 15.0mph /  24.1km/h 47% 0.00in /  0mm
16:44 85.2 °F /  29.6 °C 63.3 °F /  17.4 °C 29.94in /  1013.8hPa WSW 8.0mph /  12.9km/h 18.0mph /  29km/h 48% 0.00in /  0mm
16:49 84.8 °F /  29.3 °C 64.1 °F /  17.8 °C 29.93in /  1013.4hPa SSW 12.0mph /  19.3km/h 14.0mph /  22.5km/h 50% 0.00in /  0mm
16:54 84.3 °F /  29.1 °C 63.1 °F /  17.3 °C 29.93in /  1013.4hPa WSW 14.0mph /  22.5km/h 17.0mph /  27.4km/h 49% 0.00in /  0mm
16:59 84.4 °F /  29.1 °C 64.3 °F /  17.9 °C 29.93in /  1013.4hPa West 11.0mph /  17.7km/h 15.0mph /  24.1km/h 51% 0.00in /  0mm
17:04 84.3 °F /  29.1 °C 63.6 °F /  17.6 °C 29.93in /  1013.4hPa SW 7.0mph /  11.3km/h 15.0mph /  24.1km/h 50% 0.00in /  0mm
17:09 83.9 °F /  28.8 °C 63.3 °F /  17.4 °C 29.93in /  1013.4hPa WSW 8.0mph /  12.9km/h 16.0mph /  25.7km/h 50% 0.00in /  0mm
17:14 83.5 °F /  28.6 °C 63.5 °F /  17.5 °C 29.94in /  1013.8hPa WSW 8.0mph /  12.9km/h 18.0mph /  29km/h 51% 0.00in /  0mm
17:19 83.1 °F /  28.4 °C 64.2 °F /  17.9 °C 29.93in /  1013.4hPa WSW 8.0mph /  12.9km/h 18.0mph /  29km/h 53% 0.00in /  0mm
17:24 83.0 °F /  28.3 °C 63.6 °F /  17.6 °C 29.94in /  1013.8hPa WSW 8.0mph /  12.9km/h 20.0mph /  32.2km/h 52% 0.00in /  0mm
17:29 82.2 °F /  27.9 °C 63.4 °F /  17.4 °C 29.93in /  1013.4hPa SSW 8.0mph /  12.9km/h 15.0mph /  24.1km/h 53% 0.00in /  0mm
17:34 81.8 °F /  27.7 °C 63.0 °F /  17.2 °C 29.93in /  1013.4hPa SW 12.0mph /  19.3km/h 16.0mph /  25.7km/h 53% 0.00in /  0mm
17:39 81.9 °F /  27.7 °C 63.1 °F /  17.3 °C 29.93in /  1013.4hPa WSW 9.0mph /  14.5km/h 16.0mph /  25.7km/h 53% 0.00in /  0mm
17:44 82.2 °F /  27.9 °C 62.8 °F /  17.1 °C 29.93in /  1013.4hPa WSW 8.0mph /  12.9km/h 16.0mph /  25.7km/h 52% 0.00in /  0mm
17:49 82.5 °F /  28.1 °C 63.1 °F /  17.3 °C 29.92in /  1013.1hPa WSW 7.0mph /  11.3km/h 15.0mph /  24.1km/h 52% 0.00in /  0mm
17:54 82.9 °F /  28.3 °C 62.9 °F /  17.2 °C 29.92in /  1013.1hPa SW 10.0mph /  16.1km/h 11.0mph /  17.7km/h 51% 0.00in /  0mm
17:59 83.1 °F /  28.4 °C 62.5 °F /  16.9 °C 29.92in /  1013.1hPa SSW 7.0mph /  11.3km/h 14.0mph /  22.5km/h 50% 0.00in /  0mm
18:04 82.7 °F /  28.2 °C 62.2 °F /  16.8 °C 29.92in /  1013.1hPa WSW 5.0mph /  8km/h 14.0mph /  22.5km/h 50% 0.00in /  0mm
18:09 82.7 °F /  28.2 °C 62.2 °F /  16.8 °C 29.92in /  1013.1hPa WSW 8.0mph /  12.9km/h 17.0mph /  27.4km/h 50% 0.00in /  0mm
18:14 82.8 °F /  28.2 °C 62.3 °F /  16.8 °C 29.92in /  1013.1hPa WSW 7.0mph /  11.3km/h 17.0mph /  27.4km/h 50% 0.00in /  0mm
18:19 82.3 °F /  27.9 °C 61.2 °F /  16.2 °C 29.92in /  1013.1hPa WSW 9.0mph /  14.5km/h 14.0mph /  22.5km/h 49% 0.00in /  0mm
18:24 82.1 °F /  27.8 °C 62.2 °F /  16.8 °C 29.92in /  1013.1hPa SW 3.0mph /  4.8km/h 13.0mph /  20.9km/h 51% 0.00in /  0mm
18:29 81.8 °F /  27.7 °C 61.9 °F /  16.6 °C 29.91in /  1012.8hPa SW 8.0mph /  12.9km/h 11.0mph /  17.7km/h 51% 0.00in /  0mm
18:34 81.8 °F /  27.7 °C 62.5 °F /  16.9 °C 29.91in /  1012.8hPa West 3.0mph /  4.8km/h 13.0mph /  20.9km/h 52% 0.00in /  0mm
18:39 81.7 °F /  27.6 °C 61.8 °F /  16.6 °C 29.91in /  1012.8hPa WSW 7.0mph /  11.3km/h 16.0mph /  25.7km/h 51% 0.00in /  0mm
18:44 81.6 °F /  27.6 °C 62.3 °F /  16.8 °C 29.92in /  1013.1hPa WSW 6.0mph /  9.7km/h 16.0mph /  25.7km/h 52% 0.00in /  0mm
18:49 81.6 °F /  27.6 °C 62.3 °F /  16.8 °C 29.91in /  1012.8hPa WSW 6.0mph /  9.7km/h 12.0mph /  19.3km/h 52% 0.00in /  0mm
18:54 81.6 °F /  27.6 °C 62.3 °F /  16.8 °C 29.91in /  1012.8hPa WSW 6.0mph /  9.7km/h 13.0mph /  20.9km/h 52% 0.00in /  0mm
18:59 81.4 °F /  27.4 °C 62.6 °F /  17 °C 29.91in /  1012.8hPa SW 6.0mph /  9.7km/h 17.0mph /  27.4km/h 53% 0.00in /  0mm
19:04 81.4 °F /  27.4 °C 62.1 °F /  16.7 °C 29.91in /  1012.8hPa WSW 6.0mph /  9.7km/h 13.0mph /  20.9km/h 52% 0.00in /  0mm
19:09 81.2 °F /  27.3 °C 62.4 °F /  16.9 °C 29.91in /  1012.8hPa WSW 7.0mph /  11.3km/h 13.0mph /  20.9km/h 53% 0.00in /  0mm
19:14 80.9 °F /  27.2 °C 62.7 °F /  17.1 °C 29.91in /  1012.8hPa SW 4.0mph /  6.4km/h 13.0mph /  20.9km/h 54% 0.00in /  0mm
19:19 80.3 °F /  26.8 °C 62.7 °F /  17.1 °C 29.91in /  1012.8hPa West 5.0mph /  8km/h 11.0mph /  17.7km/h 55% 0.00in /  0mm
19:24 79.4 °F /  26.3 °C 62.3 °F /  16.8 °C 29.92in /  1013.1hPa WSW 6.0mph /  9.7km/h 12.0mph /  19.3km/h 56% 0.00in /  0mm
19:29 78.6 °F /  25.9 °C 62.6 °F /  17 °C 29.92in /  1013.1hPa SW 7.0mph /  11.3km/h 11.0mph /  17.7km/h 58% 0.00in /  0mm
19:34 77.7 °F /  25.4 °C 62.7 °F /  17.1 °C 29.92in /  1013.1hPa SW 7.0mph /  11.3km/h 13.0mph /  20.9km/h 60% 0.00in /  0mm
19:39 77.1 °F /  25.1 °C 62.6 °F /  17 °C 29.92in /  1013.1hPa WSW 7.0mph /  11.3km/h 13.0mph /  20.9km/h 61% 0.00in /  0mm
19:44 76.6 °F /  24.8 °C 62.6 °F /  17 °C 29.92in /  1013.1hPa WSW 6.0mph /  9.7km/h 11.0mph /  17.7km/h 62% 0.00in /  0mm
19:49 76.2 °F /  24.6 °C 62.7 °F /  17.1 °C 29.92in /  1013.1hPa WSW 5.0mph /  8km/h 10.0mph /  16.1km/h 63% 0.00in /  0mm
19:54 76.0 °F /  24.4 °C 62.5 °F /  16.9 °C 29.92in /  1013.1hPa WSW 3.0mph /  4.8km/h 7.0mph /  11.3km/h 63% 0.00in /  0mm
19:59 76.0 °F /  24.4 °C 62.9 °F /  17.2 °C 29.92in /  1013.1hPa WSW 6.0mph /  9.7km/h 7.0mph /  11.3km/h 64% 0.00in /  0mm
20:04 76.1 °F /  24.5 °C 62.6 °F /  17 °C 29.91in /  1012.8hPa SSW 5.0mph /  8km/h 10.0mph /  16.1km/h 63% 0.00in /  0mm
20:09 76.2 °F /  24.6 °C 62.7 °F /  17.1 °C 29.91in /  1012.8hPa SW 5.0mph /  8km/h 10.0mph /  16.1km/h 63% 0.00in /  0mm
20:14 76.5 °F /  24.7 °C 62.5 °F /  16.9 °C 29.92in /  1013.1hPa WSW 4.0mph /  6.4km/h 9.0mph /  14.5km/h 62% 0.00in /  0mm
20:19 76.7 °F /  24.8 °C 62.2 °F /  16.8 °C 29.91in /  1012.8hPa WSW 4.0mph /  6.4km/h 9.0mph /  14.5km/h 61% 0.00in /  0mm
20:24 76.7 °F /  24.8 °C 62.2 °F /  16.8 °C 29.91in /  1012.8hPa WSW 4.0mph /  6.4km/h 10.0mph /  16.1km/h 61% 0.00in /  0mm
20:29 76.8 °F /  24.9 °C 62.3 °F /  16.8 °C 29.91in /  1012.8hPa WSW 2.0mph /  3.2km/h 9.0mph /  14.5km/h 61% 0.00in /  0mm
20:34 76.8 °F /  24.9 °C 62.3 °F /  16.8 °C 29.91in /  1012.8hPa WSW 4.0mph /  6.4km/h 6.0mph /  9.7km/h 61% 0.00in /  0mm
20:39 76.9 °F /  24.9 °C 62.4 °F /  16.9 °C 29.91in /  1012.8hPa SW 3.0mph /  4.8km/h 8.0mph /  12.9km/h 61% 0.00in /  0mm
20:44 76.9 °F /  24.9 °C 62.4 °F /  16.9 °C 29.91in /  1012.8hPa WSW 1.0mph /  1.6km/h 6.0mph /  9.7km/h 61% 0.00in /  0mm
20:49 76.9 °F /  24.9 °C 62.4 °F /  16.9 °C 29.91in /  1012.8hPa SW 2.0mph /  3.2km/h 10.0mph /  16.1km/h 61% 0.00in /  0mm
20:54 76.8 °F /  24.9 °C 62.3 °F /  16.8 °C 29.91in /  1012.8hPa SW 4.0mph /  6.4km/h 6.0mph /  9.7km/h 61% 0.00in /  0mm
20:59 76.9 °F /  24.9 °C 62.4 °F /  16.9 °C 29.91in /  1012.8hPa SW 5.0mph /  8km/h 7.0mph /  11.3km/h 61% 0.00in /  0mm
21:04 77.2 °F /  25.1 °C 62.2 °F /  16.8 °C 29.91in /  1012.8hPa SW 2.0mph /  3.2km/h 7.0mph /  11.3km/h 60% 0.00in /  0mm
21:09 77.3 °F /  25.2 °C 62.8 °F /  17.1 °C 29.91in /  1012.8hPa SW 3.0mph /  4.8km/h 7.0mph /  11.3km/h 61% 0.00in /  0mm
21:14 77.3 °F /  25.2 °C 62.8 °F /  17.1 °C 29.91in /  1012.8hPa SW 3.0mph /  4.8km/h 7.0mph /  11.3km/h 61% 0.00in /  0mm
21:19 77.4 °F /  25.2 °C 62.9 °F /  17.2 °C 29.90in /  1012.4hPa SW 3.0mph /  4.8km/h 7.0mph /  11.3km/h 61% 0.00in /  0mm
21:24 77.2 °F /  25.1 °C 62.7 °F /  17.1 °C 29.91in /  1012.8hPa SW 2.0mph /  3.2km/h 5.0mph /  8km/h 61% 0.00in /  0mm
21:29 77.2 °F /  25.1 °C 62.7 °F /  17.1 °C 29.91in /  1012.8hPa SW 2.0mph /  3.2km/h 6.0mph /  9.7km/h 61% 0.00in /  0mm
21:34 77.3 °F /  25.2 °C 62.8 °F /  17.1 °C 29.91in /  1012.8hPa SW 2.0mph /  3.2km/h 6.0mph /  9.7km/h 61% 0.00in /  0mm
21:39 77.3 °F /  25.2 °C 62.8 °F /  17.1 °C 29.91in /  1012.8hPa SW 2.0mph /  3.2km/h 6.0mph /  9.7km/h 61% 0.00in /  0mm
21:44 77.4 °F /  25.2 °C 62.9 °F /  17.2 °C 29.91in /  1012.8hPa SW 2.0mph /  3.2km/h 6.0mph /  9.7km/h 61% 0.00in /  0mm
21:49 77.4 °F /  25.2 °C 62.9 °F /  17.2 °C 29.91in /  1012.8hPa SW 2.0mph /  3.2km/h 5.0mph /  8km/h 61% 0.00in /  0mm
21:54 77.5 °F /  25.3 °C 63.0 °F /  17.2 °C 29.91in /  1012.8hPa West 4.0mph /  6.4km/h 6.0mph /  9.7km/h 61% 0.00in /  0mm
21:59 77.5 °F /  25.3 °C 63.0 °F /  17.2 °C 29.91in /  1012.8hPa SSW 1.0mph /  1.6km/h 5.0mph /  8km/h 61% 0.00in /  0mm
22:04 77.6 °F /  25.3 °C 63.1 °F /  17.3 °C 29.91in /  1012.8hPa SW 4.0mph /  6.4km/h 7.0mph /  11.3km/h 61% 0.00in /  0mm
22:09 77.7 °F /  25.4 °C 63.2 °F /  17.3 °C 29.91in /  1012.8hPa SSW 4.0mph /  6.4km/h 5.0mph /  8km/h 61% 0.00in /  0mm
22:14 77.8 °F /  25.4 °C 63.3 °F /  17.4 °C 29.91in /  1012.8hPa SSW 3.0mph /  4.8km/h 7.0mph /  11.3km/h 61% 0.00in /  0mm
22:19 77.9 °F /  25.5 °C 63.4 °F /  17.4 °C 29.91in /  1012.8hPa SW 3.0mph /  4.8km/h 7.0mph /  11.3km/h 61% 0.00in /  0mm
22:24 78.1 °F /  25.6 °C 63.6 °F /  17.6 °C 29.91in /  1012.8hPa SW 2.0mph /  3.2km/h 8.0mph /  12.9km/h 61% 0.00in /  0mm
22:29 78.1 °F /  25.6 °C 63.6 °F /  17.6 °C 29.91in /  1012.8hPa WSW 1.0mph /  1.6km/h 6.0mph /  9.7km/h 61% 0.00in /  0mm
22:34 77.9 °F /  25.5 °C 63.4 °F /  17.4 °C 29.91in /  1012.8hPa SW 2.0mph /  3.2km/h 4.0mph /  6.4km/h 61% 0.00in /  0mm
22:39 77.8 °F /  25.4 °C 63.3 °F /  17.4 °C 29.91in /  1012.8hPa Calm   5.0mph /  8km/h 61% 0.00in /  0mm
22:44 77.5 °F /  25.3 °C 63.5 °F /  17.5 °C 29.91in /  1012.8hPa SW 1.0mph /  1.6km/h 5.0mph /  8km/h 62% 0.00in /  0mm
22:49 77.4 °F /  25.2 °C 63.4 °F /  17.4 °C 29.91in /  1012.8hPa SW 1.0mph /  1.6km/h 5.0mph /  8km/h 62% 0.00in /  0mm
22:54 77.2 °F /  25.1 °C 63.2 °F /  17.3 °C 29.91in /  1012.8hPa SW 1.0mph /  1.6km/h 5.0mph /  8km/h 62% 0.00in /  0mm
22:59 77.0 °F /  25 °C 63.4 °F /  17.4 °C 29.92in /  1013.1hPa Calm   3.0mph /  4.8km/h 63% 0.00in /  0mm
23:04 76.8 °F /  24.9 °C 63.2 °F /  17.3 °C 29.92in /  1013.1hPa Calm   4.0mph /  6.4km/h 63% 0.00in /  0mm
23:09 76.7 °F /  24.8 °C 63.2 °F /  17.3 °C 29.91in /  1012.8hPa SSW 4.0mph /  6.4km/h 4.0mph /  6.4km/h 63% 0.00in /  0mm
23:14 76.8 °F /  24.9 °C 63.2 °F /  17.3 °C 29.91in /  1012.8hPa SSW 2.0mph /  3.2km/h 5.0mph /  8km/h 63% 0.00in /  0mm
23:19 76.7 °F /  24.8 °C 63.6 °F /  17.6 °C 29.91in /  1012.8hPa SSW 1.0mph /  1.6km/h 5.0mph /  8km/h 64% 0.00in /  0mm
23:24 76.5 °F /  24.7 °C 63.4 °F /  17.4 °C 29.91in /  1012.8hPa SW 1.0mph /  1.6km/h 3.0mph /  4.8km/h 64% 0.00in /  0mm
23:29 76.2 °F /  24.6 °C 63.1 °F /  17.3 °C 29.91in /  1012.8hPa Calm   4.0mph /  6.4km/h 64% 0.00in /  0mm
23:34 76.1 °F /  24.5 °C 63.5 °F /  17.5 °C 29.91in /  1012.8hPa SW 1.0mph /  1.6km/h 4.0mph /  6.4km/h 65% 0.00in /  0mm
23:39 76.0 °F /  24.4 °C 63.4 °F /  17.4 °C 29.91in /  1012.8hPa SW 1.0mph /  1.6km/h 4.0mph /  6.4km/h 65% 0.00in /  0mm
23:44 75.5 °F /  24.2 °C 63.3 °F /  17.4 °C 29.91in /  1012.8hPa Calm   2.0mph /  3.2km/h 66% 0.00in /  0mm
23:49 75.2 °F /  24 °C 63.1 °F /  17.3 °C 29.91in /  1012.8hPa Calm   2.0mph /  3.2km/h 66% 0.00in /  0mm
23:54 74.9 °F /  23.8 °C 63.2 °F /  17.3 °C 29.91in /  1012.8hPa Calm   2.0mph /  3.2km/h 67% 0.00in /  0mm
23:59 74.8 °F /  23.8 °C 63.1 °F /  17.3 °C 29.91in /  1012.8hPa SW 1.0mph /  1.6km/h 3.0mph /  4.8km/h 67% 0.00in /  0mm
Buffalo, New York, USA
Compliments of Weather Underground - 2.5 mb